Friday, May 25, 2018, 8:54 AM EDT
Back to Local

KBHB, Bar Harbor, Hancock County-bar Harbor Airport

Location: Ellsworth, ME, United States Lat: 44.45
Local Time: 8:54 AM EDT (12:54 GMT) Lon: -68.367
Time Zone: US/Eastern Elev: 82 ft

Show me the last for .
Show Coded

Time T Td Feel RH Dir Speed Gust Alt SLP Vis Weather Sky Remarks
2018-05-25 07:56 57 50 - 77 210° 14 - 29.74 29.75 10 CLR 6-hr Min Temp (8am): 50.0°F
6-hr Max Temp (8am): 57.0°F
2018-05-25 06:56 54 49 - 83 220° 10 - 29.77 29.78 10 CLR None
2018-05-25 05:56 51 48 - 89 220° 14 - 29.78 29.79 10 CLR None
2018-05-25 04:56 51 48 - 89 220° 13 - 29.80 29.81 10 SCT110 None
2018-05-25 03:56 50 48 43 92 210° 17 24 29.82 29.83 10 CLR None
2018-05-25 02:56 50 47 45 89 210° 14 - 29.87 29.88 10 CLR None
2018-05-25 01:56 50 47 45 89 200° 14 - 29.91 29.92 10 FEW110 6-hr Min Temp (2am): 48.0°F
6-hr Max Temp (2am): 50.0°F
2018-05-25 00:56 50 46 46 86 210° 12 - 29.96 29.97 10 FEW080 SCT110 None
2018-05-24 23:56 50 45 47 82 210° 8 - 30.00 30.01 10 FEW070 OVC090 None
2018-05-24 22:56 49 45 45 86 220° 9 - 30.02 30.03 10 BKN100 OVC120 None
2018-05-24 21:56 48 44 43 86 210° 10 - 30.04 30.05 10 CLR None
2018-05-24 20:56 48 42 41 79 210° 14 21 30.05 30.06 10 CLR None
2018-05-24 19:56 49 40 41 70 210° 16 24 30.04 30.05 10 CLR 6-hr Min Temp (8pm): 48.9°F
6-hr Max Temp (8pm): 55.9°F
24-hr Min Temp (8pm): 37.9°F
24-hr Max Temp (8pm): 57.9°F
2018-05-24 18:56 50 41 44 71 200° 17 - 30.04 30.05 10 CLR None
2018-05-24 17:56 52 39 - 61 190° 16 23 30.05 30.06 10 CLR None
2018-05-24 16:56 53 34 - 48 190° 22 28 30.06 30.07 10 CLR None
2018-05-24 15:56 53 35 - 50 200° 17 26 30.08 30.09 10 CLR None
2018-05-24 14:56 55 35 - 46 210° 18 23 30.08 30.09 10 CLR None
2018-05-24 13:56 55 38 - 52 210° 15 23 30.10 30.11 10 CLR 6-hr Min Temp (2pm): 48.9°F
6-hr Max Temp (2pm): 57.9°F
2018-05-24 12:56 56 38 - 50 210° 16 - 30.11 30.12 10 CLR None
2018-05-24 11:56 57 37 - 47 190° 13 - 30.12 30.13 10 BKN060 None
2018-05-24 10:56 55 34 - 44 170° 9 - 30.12 30.14 10 SCT060 None
2018-05-24 09:56 53 34 - 48 130° 7 - 30.13 30.14 10 SCT060 BKN075 None
2018-05-24 08:56 51 42 - 71 120° 6 - 30.12 30.13 10 BKN060 None

Support USWX by starting your Amazon purchase here.